Flight Track Log - Related Links

Times and Time Zones

All times are in EDT time to prevent confusion due to time zone crossing. See the CES2231 flight status page for this flight to view local times or setup timezone preferences in your user account.

Time Position Orientation Groundspeed Altitude Reporting Facility
EDT Latitude Longitude Course Direction KTS MPH feet Rate Location/Type
Sat 06:30:00 AM 34.0752 107.4872 251° West  Level Estimated
Sat 06:31:00 AM 34.0500 107.4033 250° West  Level Estimated
Sat 06:32:00 AM 34.0247 107.3194 250° West  Level Estimated
Sat 06:33:00 AM 33.9993 107.2356 250° West  Level Estimated
Sat 06:34:00 AM 33.9739 107.1519 250° West  Level Estimated
Sat 06:35:00 AM 33.9484 107.0682 250° West  Level Estimated
Sat 06:36:00 AM 33.9229 106.9845 250° West  Level Estimated
Sat 06:37:00 AM 33.8973 106.9009 250° West  Level Estimated
Sat 06:38:00 AM 33.8716 106.8174 250° West  Level Estimated
Sat 06:39:00 AM 33.8459 106.7339 250° West  Level Estimated
Sat 06:40:00 AM 33.8201 106.6504 250° West  Level Estimated
Sat 06:41:00 AM 33.7943 106.5670 250° West  Level Estimated
Sat 06:42:00 AM 33.7685 106.4837 250° West  Level Estimated
Sat 06:43:00 AM 33.7425 106.4004 249° West  Level Estimated
Sat 06:44:00 AM 33.7165 106.3172 249° West  Level Estimated
Sat 06:45:00 AM 33.6905 106.2340 249° West  Level Estimated
Sat 06:46:00 AM 33.6644 106.1508 249° West  Level Estimated
Sat 06:47:00 AM 33.6382 106.0677 249° West  Level Estimated
Sat 06:48:00 AM 33.6120 105.9847 249° West  Level Estimated
Sat 06:49:00 AM 33.5858 105.9017 249° West  Level Estimated
Sat 06:50:00 AM 33.5595 105.8188 249° West  Level Estimated
Sat 06:51:00 AM 33.5331 105.7359 249° West  Level Estimated
Sat 06:52:00 AM 33.5067 105.6530 249° West  Level Estimated
Sat 06:53:00 AM 33.4802 105.5703 249° West  Level Estimated
Sat 06:54:00 AM 33.4536 105.4875 249° West  Level Estimated
Sat 06:55:00 AM 33.4271 105.4048 249° West  Level Estimated
Sat 06:56:00 AM 33.4004 105.3222 249° West  Level Estimated
Sat 06:57:00 AM 33.3737 105.2396 249° West  Level Estimated
Sat 06:58:00 AM 33.3469 105.1571 249° West  Level Estimated
Sat 06:59:00 AM 33.3201 105.0746 249° West  Level Estimated
Sat 07:00:00 AM 33.2933 104.9921 249° West  Level Estimated
Sat 07:01:00 AM 33.2663 104.9098 249° West  Level Estimated
Sat 07:02:00 AM 33.2394 104.8274 249° West  Level Estimated
Sat 07:03:00 AM 33.2123 104.7451 249° West  Level Estimated
Sat 07:04:00 AM 33.1852 104.6629 249° West  Level Estimated
Sat 07:05:00 AM 33.1581 104.5807 248° West  Level Estimated
Sat 07:06:00 AM 33.1309 104.4986 248° West  Level Estimated
Sat 07:07:00 AM 33.1037 104.4165 248° West  Level Estimated
Sat 07:07:21 AM 32.3160 104.5740 248° West 329 379 23,600  Level FlightAware ADS-B
Sat 07:07:56 AM 32.3370 104.5180 294° West 330 380 23,600  Level FlightAware ADS-B
Sat 07:08:00 AM 33.0764 104.3345 248° West  Level Estimated
Sat 07:08:30 AM 32.3580 104.4600 293° West 330 380 23,600  Level FlightAware ADS-B
Sat 07:09:07 AM 32.3810 104.3980 294° West 330 380 23,600  Level FlightAware ADS-B
Sat 07:09:43 AM 32.4030 104.3370 293° West 333 383 23,600 -878 Level FlightAware ADS-B
Sat 07:10:29 AM 32.4170 104.2570 282° West 334 384 22,400 -1,714 Descending FlightAware ADS-B
Sat 07:11:07 AM 32.4390 104.1910 292° West 329 379 21,200 -818 Descending FlightAware ADS-B
Sat 07:11:57 AM 32.4680 104.1230 297° West 329 379 21,200  Level FlightAware ADS-B
Sat 07:12:34 AM 32.4900 104.0720 297° West 329 379 21,200  Level FlightAware ADS-B
Sat 07:13:10 AM 32.5110 104.0230 297° West 329 379 21,200  Level FlightAware ADS-B
Sat 07:13:46 AM 32.5320 103.9740 297° West 329 379 21,200  Level FlightAware ADS-B
Sat 07:14:22 AM 32.5530 103.9250 297° West 329 379 21,200  Level FlightAware ADS-B
Sat 07:14:58 AM 32.5740 103.8760 297° West 329 379 21,200  Level FlightAware ADS-B
Sat 07:18:00 AM 32.7686 103.7434 330° Northwest  Level Estimated
Sat 07:19:00 AM 32.8327 103.6996 330° Northwest  Level Estimated
Sat 07:20:00 AM 32.8570 103.6830 330° Northwest  Level Estimated
Sat 07:21:00 AM 32.8570 103.6830 North  Level Estimated
Sat 07:22:00 AM 32.8570 103.6830 North  Level Estimated
Sat 07:23:00 AM 32.8570 103.6830 North  Level Estimated
Sat 07:24:00 AM 32.8570 103.6830 North  Level Estimated
Sat 07:25:00 AM 32.8570 103.6830 North  Level Estimated
Sat 07:26:00 AM 32.8570 103.6830 North  Level Estimated
Sat 07:27:00 AM 32.8570 103.6830 North  Level Estimated
Sat 07:28:00 AM 32.8570 103.6830 North  Level Estimated
Sat 07:29:00 AM 32.8570 103.6830 North  Level Estimated
Sat 07:30:00 AM 32.8570 103.6830 North  Level Estimated
Sat 07:31:00 AM 32.8570 103.6830 North  Level Estimated

Login

Don't have an account? Register now (free) for customized features, flight alerts, and more!